Time;durP1;ratioP1;P1;durP2;ratioP2;P2;SDS_P1;SDS_P2;PMS_P1;PMS_P2;Temp;Humidity;BMP_temperature;BMP_pressure;BME280_temperature;BME280_humidity;BME280_pressure;Samples;Min_cycle;Max_cycle;Signal;HPM_P1;HPM_P2
2022/04/06 00:02:01;;;;;;;3.70;3.10;;;11.20;69.40;;;;;;5085450;28;20051;-62
2022/04/06 00:04:28;;;;;;;5.05;2.67;;;11.20;69.50;;;;;;5089734;28;20074;-62
2022/04/06 00:06:53;;;;;;;3.72;2.65;;;11.20;69.40;;;;;;5083801;28;20029;-61
2022/04/06 00:09:20;;;;;;;5.20;2.67;;;11.20;69.30;;;;;;5068696;28;20036;-62
2022/04/06 00:11:46;;;;;;;4.03;2.92;;;11.20;69.20;;;;;;5086068;28;20125;-61
2022/04/06 00:14:12;;;;;;;2.65;2.45;;;11.20;69.30;;;;;;5087460;28;20474;-62
2022/04/06 00:16:38;;;;;;;3.00;2.70;;;11.20;69.40;;;;;;5085098;28;20116;-62
2022/04/06 00:19:03;;;;;;;4.40;3.17;;;11.20;69.50;;;;;;5088129;28;20402;-62
2022/04/06 00:21:29;;;;;;;3.70;2.75;;;11.20;70.20;;;;;;5091176;28;20032;-62
2022/04/06 00:23:56;;;;;;;2.60;2.38;;;11.30;70.20;;;;;;5087514;28;20186;-62
2022/04/06 00:26:22;;;;;;;3.60;2.78;;;11.30;69.40;;;;;;5085823;28;20025;-62
2022/04/06 00:28:48;;;;;;;3.90;2.45;;;11.30;69.30;;;;;;5087123;28;20041;-61
2022/04/06 00:31:15;;;;;;;3.60;2.70;;;11.30;69.40;;;;;;5085057;28;20053;-62
2022/04/06 00:33:40;;;;;;;4.95;2.72;;;11.30;69.40;;;;;;5086648;28;20051;-62
2022/04/06 00:36:06;;;;;;;5.38;3.13;;;11.30;69.50;;;;;;5091223;28;20509;-61
2022/04/06 00:38:31;;;;;;;3.10;2.80;;;11.30;69.50;;;;;;5087788;28;20037;-62
2022/04/06 00:40:57;;;;;;;5.07;2.78;;;11.30;69.50;;;;;;5077148;28;20044;-62
2022/04/06 00:43:23;;;;;;;3.75;2.88;;;11.30;69.60;;;;;;5095184;28;20031;-62
2022/04/06 00:45:48;;;;;;;2.78;2.58;;;11.30;69.70;;;;;;5085954;28;20052;-62
2022/04/06 00:48:14;;;;;;;3.25;2.70;;;11.30;69.70;;;;;;5086658;28;20051;-62
2022/04/06 00:50:42;;;;;;;5.05;2.90;;;11.30;69.70;;;;;;5085466;28;20564;-61
2022/04/06 00:53:08;;;;;;;3.03;2.72;;;11.30;69.70;;;;;;5087740;28;20043;-62
2022/04/06 00:55:38;;;;;;;3.38;2.63;;;11.40;69.80;;;;;;5086526;28;20041;-61
2022/04/06 00:58:05;;;;;;;2.97;2.67;;;11.30;69.80;;;;;;5086474;28;20092;-62
2022/04/06 01:00:31;;;;;;;3.35;2.75;;;11.30;69.80;;;;;;5092419;28;20020;-62
2022/04/06 01:02:58;;;;;;;4.43;2.78;;;11.30;69.80;;;;;;5092182;28;20036;-62
2022/04/06 01:05:25;;;;;;;4.75;3.38;;;11.30;69.80;;;;;;5085407;28;20021;-62
2022/04/06 01:07:52;;;;;;;6.30;3.05;;;11.40;69.90;;;;;;5091726;28;20028;-61
2022/04/06 01:10:19;;;;;;;5.75;3.33;;;11.40;69.80;;;;;;5084780;28;20063;-62
2022/04/06 01:12:47;;;;;;;5.95;3.35;;;11.40;69.80;;;;;;5094684;28;20036;-61
2022/04/06 01:15:13;;;;;;;4.85;3.15;;;11.40;69.80;;;;;;5084772;28;20056;-62
2022/04/06 01:17:40;;;;;;;5.22;3.55;;;11.40;69.80;;;;;;5086152;28;20047;-62
2022/04/06 01:20:08;;;;;;;6.93;4.03;;;11.40;69.90;;;;;;5084460;28;20036;-61
2022/04/06 01:22:34;;;;;;;6.25;3.72;;;11.40;69.90;;;;;;5095036;28;20100;-62
2022/04/06 01:25:02;;;;;;;3.33;2.72;;;11.40;69.60;;;;;;5084917;28;20048;-61
2022/04/06 01:27:28;;;;;;;4.13;2.70;;;11.40;69.60;;;;;;5085962;28;20032;-62
2022/04/06 01:29:54;;;;;;;3.33;2.42;;;11.40;69.70;;;;;;5066214;28;20036;-61
2022/04/06 01:32:26;;;;;;;3.90;2.60;;;11.40;69.60;;;;;;5085822;28;20032;-61
2022/04/06 01:34:54;;;;;;;4.10;2.50;;;11.40;69.40;;;;;;5094662;28;20047;-61
2022/04/06 01:37:20;;;;;;;2.58;2.25;;;11.40;69.40;;;;;;5086452;28;20084;-62
2022/04/06 01:39:47;;;;;;;3.05;2.70;;;11.40;69.40;;;;;;5085637;28;20035;-61
2022/04/06 01:42:15;;;;;;;2.75;2.28;;;11.40;69.40;;;;;;5087075;28;20024;-62
2022/04/06 01:44:41;;;;;;;3.15;2.42;;;11.40;69.60;;;;;;5084605;28;20490;-62
2022/04/06 01:47:08;;;;;;;4.78;2.42;;;11.40;70.10;;;;;;5085545;28;20025;-62
2022/04/06 01:52:19;;;;;;;3.10;2.45;;;11.40;69.50;;;;;;5086783;28;20105;-61
2022/04/06 01:54:49;;;;;;;3.05;2.08;;;11.40;69.40;;;;;;5083880;28;20052;-62
2022/04/06 01:57:16;;;;;;;2.55;2.35;;;11.40;69.40;;;;;;5067825;28;20506;-61
2022/04/06 01:59:42;;;;;;;30.45;11.10;;;11.40;69.40;;;;;;5084754;28;20574;-61
2022/04/06 02:02:09;;;;;;;36.80;12.10;;;11.40;69.40;;;;;;5072097;28;20020;-62
2022/04/06 02:04:36;;;;;;;48.30;16.83;;;11.50;69.50;;;;;;5084700;28;20035;-61
2022/04/06 02:07:01;;;;;;;37.65;15.27;;;11.50;69.60;;;;;;5066481;28;20029;-61
2022/04/06 02:09:27;;;;;;;30.20;11.80;;;11.50;69.60;;;;;;5081376;28;20082;-62
2022/04/06 02:11:54;;;;;;;14.00;6.78;;;11.50;69.70;;;;;;5093306;28;20067;-62
2022/04/06 02:14:19;;;;;;;11.88;5.78;;;11.50;69.60;;;;;;5064892;28;20155;-61
2022/04/06 02:16:45;;;;;;;8.15;4.50;;;11.50;69.60;;;;;;5085445;28;20036;-61
2022/04/06 02:19:11;;;;;;;11.15;5.53;;;11.50;69.60;;;;;;5096716;28;20033;-61
2022/04/06 02:21:37;;;;;;;13.82;6.10;;;11.50;69.70;;;;;;5085556;28;20020;-61
2022/04/06 02:24:03;;;;;;;13.48;5.38;;;11.50;69.70;;;;;;5084790;28;20033;-62
2022/04/06 02:26:28;;;;;;;4.72;3.10;;;11.50;69.70;;;;;;5084187;28;20020;-61
2022/04/06 02:28:56;;;;;;;6.97;4.20;;;11.60;69.80;;;;;;5094841;28;20040;-62
2022/04/06 02:31:22;;;;;;;9.52;4.75;;;11.50;69.70;;;;;;5087466;28;20096;-62
2022/04/06 02:33:48;;;;;;;7.00;3.90;;;11.50;69.70;;;;;;5100876;28;20107;-62
2022/04/06 02:36:13;;;;;;;6.85;4.03;;;11.50;69.70;;;;;;5085312;28;20486;-62
2022/04/06 02:38:39;;;;;;;11.85;6.00;;;11.50;69.70;;;;;;5085451;28;20099;-62
2022/04/06 02:41:06;;;;;;;10.73;5.25;;;11.50;69.70;;;;;;5092312;28;20041;-62
2022/04/06 02:43:32;;;;;;;5.63;3.30;;;11.50;69.70;;;;;;5082800;28;20045;-62
2022/04/06 02:45:58;;;;;;;7.75;3.22;;;11.50;69.70;;;;;;5064686;28;20402;-61
2022/04/06 02:48:23;;;;;;;9.98;5.22;;;11.50;69.80;;;;;;5086705;28;20096;-61
2022/04/06 02:50:49;;;;;;;9.07;5.50;;;11.50;69.80;;;;;;5081910;28;20467;-62
2022/04/06 02:53:15;;;;;;;12.07;6.10;;;11.50;69.80;;;;;;5091886;28;20056;-62
2022/04/06 02:55:40;;;;;;;8.35;4.00;;;11.50;69.90;;;;;;5086013;28;20021;-62
2022/04/06 02:58:06;;;;;;;4.88;2.88;;;11.40;69.80;;;;;;5072942;28;20036;-61
2022/04/06 03:00:32;;;;;;;4.68;2.97;;;11.50;69.90;;;;;;5086491;28;20126;-62
2022/04/06 03:02:58;;;;;;;3.67;2.63;;;11.50;69.90;;;;;;5099624;28;20040;-62
2022/04/06 03:05:27;;;;;;;5.50;3.20;;;11.50;69.70;;;;;;5087413;28;20029;-62
2022/04/06 03:07:53;;;;;;;4.38;3.03;;;11.50;69.90;;;;;;5100644;28;20068;-62
2022/04/06 03:10:18;;;;;;;4.15;3.13;;;11.40;69.70;;;;;;5090178;28;20029;-62
2022/04/06 03:12:45;;;;;;;3.53;2.80;;;11.40;69.70;;;;;;5103217;28;20039;-62
2022/04/06 03:15:11;;;;;;;3.53;3.22;;;11.40;69.70;;;;;;5086875;28;20035;-62
2022/04/06 03:17:37;;;;;;;5.07;3.22;;;11.40;69.70;;;;;;5099607;28;20028;-62
2022/04/06 03:20:07;;;;;;;4.38;3.00;;;11.40;69.80;;;;;;5075945;28;20032;-62
2022/04/06 03:22:33;;;;;;;4.85;3.60;;;11.40;69.90;;;;;;5093489;28;20024;-62
2022/04/06 03:24:59;;;;;;;3.63;3.28;;;11.40;69.60;;;;;;5002986;28;20048;-61
2022/04/06 03:27:24;;;;;;;4.70;3.25;;;11.40;69.60;;;;;;5091850;28;20062;-62
2022/04/06 03:29:50;;;;;;;3.78;3.10;;;11.30;69.70;;;;;;5087083;28;20108;-62
2022/04/06 03:32:15;;;;;;;4.38;3.30;;;11.30;69.70;;;;;;5094846;28;20430;-62
2022/04/06 03:34:41;;;;;;;4.18;3.40;;;11.30;69.70;;;;;;5093607;28;20017;-62
2022/04/06 03:37:07;;;;;;;4.57;3.40;;;11.30;69.80;;;;;;5097971;28;20082;-62
2022/04/06 03:39:33;;;;;;;4.47;3.50;;;11.30;69.70;;;;;;5085255;28;20132;-62
2022/04/06 03:41:59;;;;;;;8.13;4.03;;;11.30;69.80;;;;;;5084066;28;20082;-62
2022/04/06 03:44:24;;;;;;;4.68;3.42;;;11.30;69.90;;;;;;5086329;28;20048;-62
2022/04/06 03:46:50;;;;;;;6.22;4.00;;;11.30;69.80;;;;;;5094431;28;20028;-61
2022/04/06 03:49:16;;;;;;;5.18;3.90;;;11.30;69.80;;;;;;5082489;28;20097;-61
2022/04/06 03:51:42;;;;;;;6.80;4.35;;;11.30;69.80;;;;;;5106414;28;20039;-62
2022/04/06 03:54:08;;;;;;;7.35;4.70;;;11.30;69.70;;;;;;5088549;28;20049;-62
2022/04/06 03:56:34;;;;;;;8.05;5.30;;;11.30;69.80;;;;;;5069768;28;20106;-62
2022/04/06 03:58:59;;;;;;;5.97;4.20;;;11.30;69.80;;;;;;5088304;28;20585;-62
2022/04/06 04:01:25;;;;;;;5.55;4.05;;;11.20;69.70;;;;;;5087775;28;20555;-62
2022/04/06 04:03:51;;;;;;;5.85;4.10;;;11.20;69.60;;;;;;5097004;28;20062;-62
2022/04/06 04:06:17;;;;;;;5.90;4.47;;;11.20;69.60;;;;;;5087854;28;20077;-62
2022/04/06 04:08:42;;;;;;;5.25;3.65;;;11.20;69.70;;;;;;5068800;28;20099;-63
2022/04/06 04:11:08;;;;;;;7.28;4.00;;;11.20;69.70;;;;;;5087282;28;20063;-62
2022/04/06 04:13:34;;;;;;;7.85;3.78;;;11.20;69.80;;;;;;5083295;28;20046;-61
2022/04/06 04:16:00;;;;;;;3.95;3.55;;;11.20;69.70;;;;;;5069009;28;20025;-62
2022/04/06 04:18:26;;;;;;;4.35;3.85;;;11.20;69.70;;;;;;5087072;28;20115;-62
2022/04/06 04:21:31;;;;;;;5.82;3.38;;;11.20;69.70;;;;;;5086081;28;20028;-62
2022/04/06 04:23:37;;;;;;;4.70;3.60;;;11.20;69.70;;;;;;5090274;28;20390;-62
2022/04/06 04:26:03;;;;;;;4.88;3.45;;;11.20;69.70;;;;;;5033409;28;20043;-62
2022/04/06 04:28:29;;;;;;;4.85;3.42;;;11.20;69.80;;;;;;5085510;28;20060;-62
2022/04/06 04:30:54;;;;;;;5.32;4.13;;;11.20;69.90;;;;;;5084200;28;20036;-62
2022/04/06 04:33:20;;;;;;;4.93;3.88;;;11.20;70.00;;;;;;5088036;28;20025;-62
2022/04/06 04:35:46;;;;;;;4.35;3.30;;;11.20;69.80;;;;;;5087067;28;20047;-62
2022/04/06 04:38:11;;;;;;;5.65;3.78;;;11.20;69.80;;;;;;5085727;28;20020;-61
2022/04/06 04:40:37;;;;;;;5.82;3.72;;;11.20;69.90;;;;;;5085689;28;20029;-62
2022/04/06 04:43:03;;;;;;;4.95;3.25;;;11.20;69.80;;;;;;5097183;28;20039;-62
2022/04/06 04:45:29;;;;;;;5.53;3.25;;;11.20;69.80;;;;;;5089740;28;20032;-62
2022/04/06 04:47:54;;;;;;;4.80;3.72;;;11.20;70.00;;;;;;5093518;28;20041;-61
2022/04/06 04:50:20;;;;;;;4.90;3.55;;;11.20;69.90;;;;;;5098863;28;20086;-62
2022/04/06 04:52:46;;;;;;;3.70;3.20;;;11.20;70.00;;;;;;5085776;28;20021;-62
2022/04/06 04:55:12;;;;;;;3.80;3.35;;;11.20;69.90;;;;;;5087104;28;20510;-62
2022/04/06 04:57:37;;;;;;;4.25;3.38;;;11.20;70.00;;;;;;5084145;28;20028;-62
2022/04/06 05:00:08;;;;;;;4.18;2.95;;;11.20;69.90;;;;;;5069316;28;20410;-62
2022/04/06 05:02:36;;;;;;;3.08;2.78;;;11.20;70.00;;;;;;5099579;28;20020;-62
2022/04/06 05:05:05;;;;;;;4.15;3.20;;;11.20;69.90;;;;;;5094165;28;20050;-61
2022/04/06 05:07:31;;;;;;;4.57;3.35;;;11.20;70.00;;;;;;5083847;28;20036;-62
2022/04/06 05:09:57;;;;;;;4.72;3.35;;;11.20;70.00;;;;;;5086983;28;20107;-62
2022/04/06 05:12:24;;;;;;;5.90;3.63;;;11.20;69.90;;;;;;5085085;28;20028;-62
2022/04/06 05:14:50;;;;;;;4.82;3.20;;;11.20;69.80;;;;;;5085888;28;20055;-62
2022/04/06 05:17:16;;;;;;;5.18;3.45;;;11.20;69.70;;;;;;5086308;28;20024;-62
2022/04/06 05:19:42;;;;;;;5.05;3.78;;;11.20;69.80;;;;;;5083867;28;20048;-63
2022/04/06 05:22:08;;;;;;;6.32;3.85;;;11.20;69.80;;;;;;5067633;28;20031;-62
2022/04/06 05:24:34;;;;;;;7.95;4.22;;;11.20;69.70;;;;;;5085345;28;20017;-61
2022/04/06 05:27:00;;;;;;;5.80;4.45;;;11.20;69.70;;;;;;5085812;28;20024;-61
2022/04/06 05:29:25;;;;;;;5.35;4.07;;;11.20;69.80;;;;;;5079629;28;20123;-62
2022/04/06 05:31:51;;;;;;;8.85;4.32;;;11.20;69.80;;;;;;5090368;28;20026;-61
2022/04/06 05:34:17;;;;;;;7.68;5.00;;;11.20;69.80;;;;;;5096814;28;20092;-63
2022/04/06 05:36:42;;;;;;;5.13;4.10;;;11.30;69.80;;;;;;5087295;28;20025;-63
2022/04/06 05:39:08;;;;;;;7.70;4.40;;;11.30;69.80;;;;;;5083656;28;20118;-61
2022/04/06 05:41:34;;;;;;;6.07;4.20;;;11.30;69.70;;;;;;5086964;28;20021;-62
2022/04/06 05:44:00;;;;;;;5.60;4.55;;;11.30;69.70;;;;;;5084774;28;20032;-62
2022/04/06 05:46:26;;;;;;;8.45;4.25;;;11.30;69.70;;;;;;5089495;28;20028;-62
2022/04/06 05:48:51;;;;;;;8.65;4.35;;;11.30;69.60;;;;;;5083385;28;20032;-63
2022/04/06 05:51:17;;;;;;;6.18;3.92;;;11.30;70.00;;;;;;5087381;28;20024;-62
2022/04/06 05:53:42;;;;;;;5.22;4.10;;;11.40;69.90;;;;;;5084788;28;20047;-62
2022/04/06 05:56:08;;;;;;;5.22;4.28;;;11.30;69.70;;;;;;5085647;28;20390;-61
2022/04/06 05:58:34;;;;;;;6.05;4.13;;;11.40;69.80;;;;;;5065964;28;20487;-62
2022/04/06 06:00:59;;;;;;;7.45;4.13;;;11.40;69.90;;;;;;5086078;28;20024;-62
2022/04/06 06:03:25;;;;;;;5.03;4.15;;;11.40;69.70;;;;;;5089338;28;20122;-61
2022/04/06 06:05:51;;;;;;;5.43;4.40;;;11.40;69.60;;;;;;5085931;28;20039;-61
2022/04/06 06:08:17;;;;;;;5.40;4.35;;;11.50;69.60;;;;;;5083817;28;20041;-62
2022/04/06 06:10:42;;;;;;;9.27;4.22;;;11.50;69.70;;;;;;5085780;28;20035;-62
2022/04/06 06:13:08;;;;;;;6.22;4.38;;;11.50;69.60;;;;;;5086635;28;20029;-62
2022/04/06 06:15:34;;;;;;;5.45;3.97;;;11.50;69.60;;;;;;5080153;28;20120;-62
2022/04/06 06:17:59;;;;;;;9.13;4.35;;;11.60;69.70;;;;;;5084961;28;20040;-62
2022/04/06 06:20:27;;;;;;;4.78;3.78;;;11.60;69.70;;;;;;5083429;28;20024;-62
2022/04/06 06:22:52;;;;;;;5.47;3.53;;;11.60;69.70;;;;;;5096689;28;20082;-62
2022/04/06 06:25:18;;;;;;;5.90;4.25;;;11.70;69.60;;;;;;5083515;28;20036;-61
2022/04/06 06:27:46;;;;;;;4.43;3.67;;;11.70;69.60;;;;;;5085533;28;20108;-62
2022/04/06 06:30:13;;;;;;;5.43;4.00;;;11.80;69.50;;;;;;5087874;28;20091;-62
2022/04/06 06:32:40;;;;;;;4.32;3.60;;;11.80;69.50;;;;;;5096069;28;20035;-62
2022/04/06 06:35:08;;;;;;;5.18;3.58;;;11.80;69.20;;;;;;5090000;28;20016;-62
2022/04/06 06:37:34;;;;;;;5.00;3.47;;;11.80;69.20;;;;;;5084436;28;20032;-62
2022/04/06 06:40:00;;;;;;;6.40;3.78;;;11.90;69.30;;;;;;5083594;28;20051;-62
2022/04/06 06:42:26;;;;;;;6.05;4.00;;;11.90;69.30;;;;;;5091865;28;20036;-62
2022/04/06 06:44:51;;;;;;;5.05;3.83;;;11.90;69.30;;;;;;5083276;28;20028;-62
2022/04/06 06:47:17;;;;;;;5.90;3.60;;;12.00;69.20;;;;;;5083894;28;20080;-61
2022/04/06 06:49:46;;;;;;;4.55;3.50;;;12.00;69.10;;;;;;5065237;28;20033;-62
2022/04/06 06:52:13;;;;;;;6.93;4.30;;;12.00;69.10;;;;;;5085253;28;20024;-62
2022/04/06 06:54:39;;;;;;;6.40;4.25;;;12.10;69.00;;;;;;5097159;28;20040;-62
2022/04/06 06:57:05;;;;;;;4.50;3.65;;;12.10;69.10;;;;;;5084248;28;20033;-62
2022/04/06 06:59:31;;;;;;;8.95;4.60;;;12.10;69.00;;;;;;5098061;28;20440;-63
2022/04/06 07:01:56;;;;;;;6.72;4.20;;;12.10;68.90;;;;;;5089167;28;20032;-62
2022/04/06 07:04:22;;;;;;;6.53;4.10;;;12.20;68.80;;;;;;5096889;28;20025;-62
2022/04/06 07:06:49;;;;;;;6.65;4.22;;;12.20;68.80;;;;;;5084089;28;20024;-62
2022/04/06 07:09:16;;;;;;;6.13;4.13;;;12.20;68.70;;;;;;5082972;28;20039;-62
2022/04/06 07:11:42;;;;;;;6.88;4.40;;;12.20;68.60;;;;;;5084940;28;20055;-62
2022/04/06 07:14:07;;;;;;;7.32;4.38;;;12.20;68.60;;;;;;5083713;28;20028;-62
2022/04/06 07:16:33;;;;;;;6.38;4.30;;;12.20;68.60;;;;;;5079902;28;20024;-61
2022/04/06 07:18:59;;;;;;;6.80;3.90;;;12.20;68.50;;;;;;5083399;28;20025;-62
2022/04/06 07:21:25;;;;;;;6.95;4.40;;;12.30;68.50;;;;;;5084351;28;20032;-61
2022/04/06 07:23:51;;;;;;;7.95;4.15;;;12.30;68.50;;;;;;5085438;28;20040;-62
2022/04/06 07:26:17;;;;;;;7.82;4.40;;;12.30;68.50;;;;;;5081539;28;20021;-61
2022/04/06 07:28:46;;;;;;;7.93;4.40;;;12.30;68.50;;;;;;5084288;28;20399;-61
2022/04/06 07:31:12;;;;;;;6.30;3.53;;;12.30;68.50;;;;;;5084131;28;20021;-61
2022/04/06 07:33:40;;;;;;;6.35;3.80;;;12.40;68.50;;;;;;5084528;28;20029;-61
2022/04/06 07:36:08;;;;;;;9.00;4.05;;;12.40;68.40;;;;;;5085521;28;20532;-62
2022/04/06 07:38:34;;;;;;;8.90;3.95;;;12.50;68.50;;;;;;5088162;28;20032;-62
2022/04/06 07:41:00;;;;;;;6.57;4.10;;;12.50;68.50;;;;;;5086322;28;20398;-62
2022/04/06 07:43:25;;;;;;;4.85;3.75;;;12.60;68.50;;;;;;5101616;28;20035;-61
2022/04/06 07:45:51;;;;;;;5.68;3.70;;;12.60;68.40;;;;;;5092435;28;20094;-62
2022/04/06 07:48:17;;;;;;;5.95;3.80;;;12.70;68.30;;;;;;5087365;28;20044;-62
2022/04/06 07:50:43;;;;;;;5.68;3.67;;;12.80;68.30;;;;;;5086517;28;20046;-62
2022/04/06 07:53:08;;;;;;;7.07;4.03;;;12.80;68.00;;;;;;5087664;28;20029;-62
2022/04/06 07:55:35;;;;;;;6.68;3.80;;;12.90;68.00;;;;;;5095105;28;20020;-61
2022/04/06 07:58:00;;;;;;;6.95;4.22;;;13.00;67.80;;;;;;5067327;28;20029;-62
2022/04/06 08:00:32;;;;;;;7.00;3.60;;;13.00;67.70;;;;;;5081262;28;20029;-62
2022/04/06 08:02:58;;;;;;;5.22;3.30;;;13.00;67.60;;;;;;5082076;28;20055;-61
2022/04/06 08:05:24;;;;;;;5.93;3.70;;;13.10;67.50;;;;;;5085522;28;20028;-61
2022/04/06 08:07:53;;;;;;;7.25;3.83;;;13.10;67.20;;;;;;5076068;28;20474;-62
2022/04/06 08:10:19;;;;;;;5.10;3.42;;;13.10;67.10;;;;;;5082235;28;20028;-61
2022/04/06 08:12:45;;;;;;;5.32;3.65;;;13.10;66.90;;;;;;5085748;28;20044;-61
2022/04/06 08:15:12;;;;;;;4.63;3.10;;;13.10;66.80;;;;;;5086992;28;20031;-61
2022/04/06 08:17:40;;;;;;;4.60;2.88;;;13.20;66.90;;;;;;5094377;28;20042;-61
2022/04/06 08:20:14;;;;;;;7.97;3.58;;;13.20;67.00;;;;;;5084927;28;20167;-61
2022/04/06 08:22:40;;;;;;;8.80;3.65;;;13.20;67.00;;;;;;5086325;28;20105;-62
2022/04/06 08:25:06;;;;;;;6.50;3.65;;;13.30;67.10;;;;;;5086919;28;20023;-61
2022/04/06 08:27:36;;;;;;;9.23;4.32;;;13.30;66.90;;;;;;5087795;28;20052;-62
2022/04/06 08:30:05;;;;;;;6.95;3.40;;;13.30;66.80;;;;;;5083196;28;20028;-62
2022/04/06 08:32:31;;;;;;;7.65;3.67;;;13.40;66.80;;;;;;5087238;28;20020;-61
2022/04/06 08:34:57;;;;;;;4.70;3.63;;;13.40;66.60;;;;;;5083528;28;20508;-61
2022/04/06 08:37:22;;;;;;;4.85;2.88;;;13.50;66.60;;;;;;5080964;28;20056;-62
2022/04/06 08:39:49;;;;;;;4.95;2.78;;;13.50;66.50;;;;;;5082443;28;20021;-61
2022/04/06 08:42:15;;;;;;;6.03;2.85;;;13.60;66.50;;;;;;5066836;28;20028;-61
2022/04/06 08:44:41;;;;;;;4.10;2.58;;;13.70;66.50;;;;;;5084548;28;20042;-61
2022/04/06 08:47:07;;;;;;;3.22;2.25;;;13.70;66.20;;;;;;5087058;28;20032;-62
2022/04/06 08:49:36;;;;;;;5.55;2.22;;;13.80;65.90;;;;;;5088879;28;20032;-61
2022/04/06 08:52:05;;;;;;;3.40;2.00;;;13.90;65.90;;;;;;5086314;28;20036;-61
2022/04/06 08:54:32;;;;;;;7.05;1.70;;;13.90;65.80;;;;;;5095278;28;20054;-62
2022/04/06 08:56:58;;;;;;;1.50;1.40;;;14.00;65.60;;;;;;5084928;28;20037;-63
2022/04/06 08:59:24;;;;;;;1.30;1.20;;;14.10;65.40;;;;;;5075572;28;20031;-62
2022/04/06 09:01:49;;;;;;;5.32;1.33;;;14.20;65.30;;;;;;5085538;28;20032;-62
2022/04/06 09:04:15;;;;;;;1.23;0.80;;;14.30;64.70;;;;;;5085052;28;20025;-61
2022/04/06 09:06:42;;;;;;;1.58;0.70;;;14.30;63.40;;;;;;5084539;28;20021;-62
2022/04/06 09:09:09;;;;;;;0.80;0.70;;;14.40;63.00;;;;;;5086117;28;20036;-62
2022/04/06 09:11:45;;;;;;;3.63;0.80;;;14.40;62.50;;;;;;5086986;28;20055;-61
2022/04/06 09:14:12;;;;;;;2.38;0.73;;;14.40;62.00;;;;;;5099435;28;20498;-62
2022/04/06 09:16:37;;;;;;;1.88;0.57;;;14.40;62.60;;;;;;5085632;28;20032;-62
2022/04/06 09:19:11;;;;;;;2.08;0.70;;;14.50;62.80;;;;;;5088652;28;20139;-62
2022/04/06 09:21:47;;;;;;;2.73;0.50;;;14.60;62.70;;;;;;5073055;28;20020;-62
2022/04/06 09:24:15;;;;;;;1.02;0.63;;;14.60;62.30;;;;;;5091467;28;20043;-61
2022/04/06 09:26:41;;;;;;;0.60;0.50;;;14.70;62.20;;;;;;5080069;28;20043;-62
2022/04/06 09:29:10;;;;;;;1.05;0.60;;;14.80;62.00;;;;;;5087268;28;20486;-62
2022/04/06 09:31:40;;;;;;;0.70;0.70;;;14.80;61.70;;;;;;5091440;28;20108;-61
2022/04/06 09:34:09;;;;;;;1.67;0.80;;;14.90;62.20;;;;;;5086475;28;20078;-62
2022/04/06 09:36:38;;;;;;;0.65;0.60;;;14.90;61.30;;;;;;5076013;28;20035;-62
2022/04/06 09:39:05;;;;;;;1.02;0.60;;;15.00;60.50;;;;;;5085829;28;20041;-61
2022/04/06 09:41:31;;;;;;;1.02;0.70;;;15.10;60.20;;;;;;5084547;28;20401;-61
2022/04/06 09:47:38;;;;;;;1.15;0.63;;;15.00;60.00;;;;;;5102544;28;20087;-62
2022/04/06 09:47:40;;;;;;;3.47;0.95;;;15.10;59.90;;;;;;5080426;28;20040;-61
2022/04/06 09:50:22;;;;;;;0.57;0.57;;;15.20;59.00;;;;;;5038772;28;20071;-61
2022/04/06 09:52:49;;;;;;;0.68;0.68;;;15.30;59.80;;;;;;5035007;28;20030;-61
2022/04/06 09:55:17;;;;;;;0.80;0.70;;;15.40;59.10;;;;;;5031801;28;20088;-62
2022/04/06 09:57:51;;;;;;;1.00;0.60;;;15.50;58.90;;;;;;5040838;28;20041;-62
2022/04/06 10:00:22;;;;;;;0.60;0.60;;;15.50;59.20;;;;;;5042938;28;20021;-62
2022/04/06 10:03:05;;;;;;;0.93;0.60;;;15.50;58.90;;;;;;5037965;28;20041;-61
2022/04/06 10:05:33;;;;;;;0.70;0.70;;;15.60;59.00;;;;;;5041590;28;20108;-62
2022/04/06 10:08:04;;;;;;;0.50;0.50;;;15.70;58.50;;;;;;5027578;28;20524;-62
2022/04/06 10:10:31;;;;;;;0.60;0.60;;;15.80;57.80;;;;;;5040465;28;20048;-62
2022/04/06 10:12:58;;;;;;;2.15;0.70;;;15.80;58.00;;;;;;5024718;28;20034;-62
2022/04/06 10:15:25;;;;;;;0.52;0.50;;;15.80;57.90;;;;;;5035111;28;20538;-61
2022/04/06 10:17:51;;;;;;;0.60;0.60;;;15.80;58.00;;;;;;5038858;28;20052;-61
2022/04/06 10:20:29;;;;;;;0.52;0.52;;;15.90;58.20;;;;;;5030392;28;20040;-62
2022/04/06 10:23:26;;;;;;;0.82;0.57;;;15.90;57.90;;;;;;5041760;28;20092;-62
2022/04/06 10:26:29;;;;;;;0.85;0.50;;;16.10;57.30;;;;;;4963076;28;20032;-61
2022/04/06 10:28:55;;;;;;;1.05;0.50;;;16.20;57.80;;;;;;5073119;28;20572;-61
2022/04/06 10:31:26;;;;;;;1.70;0.65;;;16.40;57.90;;;;;;5087593;28;20047;-62
2022/04/06 10:34:23;;;;;;;0.55;0.50;;;16.50;57.20;;;;;;5083448;28;20025;-61
2022/04/06 10:37:07;;;;;;;0.88;0.55;;;16.60;55.10;;;;;;5079329;28;20055;-61
2022/04/06 10:39:51;;;;;;;1.40;1.30;;;16.70;56.00;;;;;;5085903;28;20024;-61
2022/04/06 10:42:30;;;;;;;3.38;0.85;;;16.80;55.70;;;;;;5075401;28;20445;-62
2022/04/06 10:44:55;;;;;;;0.60;0.60;;;16.80;55.50;;;;;;5084666;28;20044;-62
2022/04/06 10:47:22;;;;;;;0.85;0.60;;;16.80;55.80;;;;;;5083468;28;20038;-61
2022/04/06 10:50:10;;;;;;;2.85;0.50;;;16.80;55.60;;;;;;5088666;28;20727;-62
2022/04/06 10:52:36;;;;;;;0.80;0.60;;;16.80;55.30;;;;;;5083885;28;20062;-62
2022/04/06 10:55:11;;;;;;;0.73;0.68;;;16.80;57.10;;;;;;5067913;28;20049;-62
2022/04/06 10:57:56;;;;;;;1.23;0.80;;;16.90;55.00;;;;;;5066845;28;20023;-62
2022/04/06 11:00:22;;;;;;;;;;;17.00;54.90;;;;;;5072484;28;20025;-62
2022/04/06 11:02:50;;;;;;;1.15;0.60;;;17.10;55.80;;;;;;5063891;28;19916;-61
2022/04/06 11:05:43;;;;;;;0.85;0.77;;;17.20;56.00;;;;;;5074306;28;20561;-61
2022/04/06 11:11:12;;;;;;;;;;;17.40;56.10;;;;;;5059674;28;20039;-62
2022/04/06 11:13:37;;;;;;;0.95;0.60;;;17.70;56.50;;;;;;5087065;28;19908;-62
2022/04/06 11:16:05;;;;;;;0.90;0.57;;;17.80;55.50;;;;;;5066932;28;20025;-62
2022/04/06 11:18:47;;;;;;;0.52;0.52;;;17.90;53.10;;;;;;5077369;28;20083;-62
2022/04/06 11:21:14;;;;;;;1.00;0.68;;;18.00;53.80;;;;;;5078345;28;20029;-62
2022/04/06 11:23:43;;;;;;;0.90;0.52;;;18.10;53.00;;;;;;5072949;28;20051;-61
2022/04/06 11:26:08;;;;;;;1.48;0.60;;;18.20;53.00;;;;;;5076000;28;20032;-61
2022/04/06 11:28:34;;;;;;;0.73;0.60;;;18.20;52.40;;;;;;5079772;28;20041;-62
2022/04/06 11:31:04;;;;;;;0.70;0.70;;;18.30;53.00;;;;;;5077986;28;20051;-61
2022/04/06 11:33:45;;;;;;;0.90;0.60;;;18.30;52.00;;;;;;5076640;28;20025;-62
2022/04/06 11:36:15;;;;;;;0.55;0.55;;;18.30;51.80;;;;;;5073605;28;20040;-62
2022/04/06 11:38:41;;;;;;;0.73;0.73;;;18.30;52.10;;;;;;5061036;28;20078;-62
2022/04/06 11:41:07;;;;;;;1.15;0.80;;;18.30;52.30;;;;;;5061260;28;20082;-62
2022/04/06 11:43:39;;;;;;;3.08;0.80;;;18.30;52.20;;;;;;5056195;28;20033;-62
2022/04/06 11:46:05;;;;;;;0.60;0.60;;;18.30;52.90;;;;;;5052959;28;20029;-62
2022/04/06 11:48:42;;;;;;;0.88;0.70;;;18.40;53.00;;;;;;5067700;28;20032;-62
2022/04/06 11:51:08;;;;;;;2.55;0.68;;;18.50;52.20;;;;;;5059871;28;20104;-61
2022/04/06 11:53:36;;;;;;;1.25;0.60;;;18.60;52.50;;;;;;5070755;28;20045;-62
2022/04/06 11:56:03;;;;;;;1.20;0.73;;;18.80;52.40;;;;;;5070360;28;20032;-62
2022/04/06 11:58:32;;;;;;;0.50;0.50;;;18.80;51.70;;;;;;5076201;28;20046;-62
2022/04/06 12:01:07;;;;;;;0.85;0.50;;;19.00;50.50;;;;;;5073107;28;20029;-61
2022/04/06 12:03:35;;;;;;;0.90;0.50;;;19.10;50.00;;;;;;5085334;28;20031;-62
2022/04/06 12:06:02;;;;;;;1.63;0.55;;;19.20;51.70;;;;;;5081769;28;20024;-62
2022/04/06 12:08:28;;;;;;;0.82;0.60;;;19.40;52.00;;;;;;5083629;28;20096;-62
2022/04/06 12:10:56;;;;;;;0.90;0.57;;;19.60;51.70;;;;;;5078350;28;20027;-61
2022/04/06 12:13:23;;;;;;;0.50;0.50;;;19.80;50.00;;;;;;5082820;28;20028;-61
2022/04/06 12:15:49;;;;;;;0.70;0.60;;;19.90;49.30;;;;;;5082210;28;20035;-62
2022/04/06 12:18:16;;;;;;;0.85;0.57;;;20.00;48.80;;;;;;5085750;28;20085;-62
2022/04/06 12:20:41;;;;;;;1.33;0.60;;;20.00;48.70;;;;;;5066657;28;20090;-63
2022/04/06 12:23:10;;;;;;;2.15;0.60;;;19.90;48.90;;;;;;5075363;28;20096;-62
2022/04/06 12:25:36;;;;;;;0.90;0.60;;;20.00;49.00;;;;;;5078629;28;20029;-62
2022/04/06 12:28:13;;;;;;;0.60;0.60;;;20.00;48.30;;;;;;4993268;28;20355;-62
2022/04/06 12:30:55;;;;;;;1.17;0.80;;;20.00;48.40;;;;;;5086288;28;20028;-62
2022/04/06 12:33:35;;;;;;;0.88;0.52;;;20.00;47.00;;;;;;5080190;28;20046;-62
2022/04/06 12:36:25;;;;;;;0.50;0.50;;;20.10;46.60;;;;;;5073229;28;20024;-63
2022/04/06 12:39:10;;;;;;;0.47;0.40;;;20.10;46.30;;;;;;5079465;28;20493;-62
2022/04/06 12:41:53;;;;;;;0.40;0.40;;;20.10;46.30;;;;;;5078828;28;20036;-62
2022/04/06 12:44:19;;;;;;;0.98;0.38;;;20.10;44.40;;;;;;5082263;28;20029;-62
2022/04/06 12:46:47;;;;;;;0.52;0.50;;;20.20;47.00;;;;;;5081702;28;20032;-62
2022/04/06 12:49:21;;;;;;;1.58;0.45;;;20.20;46.80;;;;;;5086463;28;20067;-62
2022/04/06 12:51:47;;;;;;;2.20;0.47;;;20.30;46.40;;;;;;5071178;28;20029;-63
2022/04/06 12:54:13;;;;;;;0.55;0.50;;;20.40;46.60;;;;;;5096224;28;20405;-62
2022/04/06 12:56:59;;;;;;;1.65;0.50;;;20.50;47.00;;;;;;5085169;28;20020;-61
2022/04/06 12:59:36;;;;;;;0.50;0.50;;;20.60;46.00;;;;;;5104762;28;20036;-62